sensor_id;sensor_type;location;lat;lon;timestamp;P1;durP1;ratioP1;P2;durP2;ratioP2
49235;SDS011;35067;48.134;8.378;2023-08-21T00:00:35;12.30;;;9.63;;
49235;SDS011;35067;48.134;8.378;2023-08-21T00:01:36;11.20;;;9.57;;
49235;SDS011;35067;48.134;8.378;2023-08-21T00:02:37;10.40;;;9.30;;
49235;SDS011;35067;48.134;8.378;2023-08-21T00:03:37;10.60;;;9.53;;
49235;SDS011;35067;48.134;8.378;2023-08-21T00:04:38;11.77;;;9.17;;
49235;SDS011;35067;48.134;8.378;2023-08-21T00:05:39;9.73;;;8.70;;
49235;SDS011;35067;48.134;8.378;2023-08-21T00:06:39;11.63;;;9.53;;
49235;SDS011;35067;48.134;8.378;2023-08-21T00:07:40;13.23;;;10.30;;
49235;SDS011;35067;48.134;8.378;2023-08-21T00:08:41;13.83;;;9.27;;
49235;SDS011;35067;48.134;8.378;2023-08-21T00:09:42;10.40;;;9.27;;
49235;SDS011;35067;48.134;8.378;2023-08-21T00:10:42;12.10;;;9.83;;
49235;SDS011;35067;48.134;8.378;2023-08-21T00:11:43;11.03;;;9.17;;
49235;SDS011;35067;48.134;8.378;2023-08-21T00:12:44;13.23;;;9.53;;
49235;SDS011;35067;48.134;8.378;2023-08-21T00:13:44;10.77;;;9.67;;
49235;SDS011;35067;48.134;8.378;2023-08-21T00:14:47;11.23;;;9.70;;
49235;SDS011;35067;48.134;8.378;2023-08-21T00:15:48;10.83;;;9.83;;
49235;SDS011;35067;48.134;8.378;2023-08-21T00:16:49;10.67;;;9.57;;
49235;SDS011;35067;48.134;8.378;2023-08-21T00:17:50;11.03;;;9.13;;
49235;SDS011;35067;48.134;8.378;2023-08-21T00:18:50;10.93;;;9.80;;
49235;SDS011;35067;48.134;8.378;2023-08-21T00:19:51;10.80;;;9.80;;
49235;SDS011;35067;48.134;8.378;2023-08-21T00:20:52;11.33;;;9.57;;
49235;SDS011;35067;48.134;8.378;2023-08-21T00:21:52;10.47;;;9.30;;
49235;SDS011;35067;48.134;8.378;2023-08-21T00:22:53;11.63;;;9.30;;
49235;SDS011;35067;48.134;8.378;2023-08-21T00:23:54;10.50;;;9.50;;
49235;SDS011;35067;48.134;8.378;2023-08-21T00:24:55;12.40;;;9.63;;
49235;SDS011;35067;48.134;8.378;2023-08-21T00:25:56;12.07;;;9.50;;
49235;SDS011;35067;48.134;8.378;2023-08-21T00:26:57;10.73;;;9.63;;
49235;SDS011;35067;48.134;8.378;2023-08-21T00:27:58;11.90;;;9.53;;
49235;SDS011;35067;48.134;8.378;2023-08-21T00:28:58;11.33;;;8.73;;
49235;SDS011;35067;48.134;8.378;2023-08-21T00:30:00;12.07;;;9.60;;
49235;SDS011;35067;48.134;8.378;2023-08-21T00:31:01;11.07;;;9.30;;
49235;SDS011;35067;48.134;8.378;2023-08-21T00:32:03;9.77;;;8.77;;
49235;SDS011;35067;48.134;8.378;2023-08-21T00:33:04;12.70;;;9.60;;
49235;SDS011;35067;48.134;8.378;2023-08-21T00:34:05;11.90;;;9.00;;
49235;SDS011;35067;48.134;8.378;2023-08-21T00:35:06;11.57;;;9.37;;
49235;SDS011;35067;48.134;8.378;2023-08-21T00:36:07;11.27;;;9.37;;
49235;SDS011;35067;48.134;8.378;2023-08-21T00:37:07;10.13;;;9.13;;
49235;SDS011;35067;48.134;8.378;2023-08-21T00:38:08;12.33;;;9.17;;
49235;SDS011;35067;48.134;8.378;2023-08-21T00:39:09;9.90;;;8.90;;
49235;SDS011;35067;48.134;8.378;2023-08-21T00:40:10;10.23;;;9.23;;
49235;SDS011;35067;48.134;8.378;2023-08-21T00:41:11;11.50;;;8.47;;
49235;SDS011;35067;48.134;8.378;2023-08-21T00:42:12;10.53;;;9.07;;
49235;SDS011;35067;48.134;8.378;2023-08-21T00:43:13;10.13;;;8.80;;
49235;SDS011;35067;48.134;8.378;2023-08-21T00:44:13;10.67;;;8.87;;
49235;SDS011;35067;48.134;8.378;2023-08-21T00:45:14;10.90;;;8.80;;
49235;SDS011;35067;48.134;8.378;2023-08-21T00:46:15;10.10;;;9.07;;
49235;SDS011;35067;48.134;8.378;2023-08-21T00:47:17;11.13;;;9.60;;
49235;SDS011;35067;48.134;8.378;2023-08-21T00:48:19;11.17;;;9.97;;
49235;SDS011;35067;48.134;8.378;2023-08-21T00:49:20;10.27;;;9.20;;
49235;SDS011;35067;48.134;8.378;2023-08-21T00:50:21;11.43;;;9.47;;
49235;SDS011;35067;48.134;8.378;2023-08-21T00:51:22;11.13;;;9.10;;
49235;SDS011;35067;48.134;8.378;2023-08-21T00:52:24;11.90;;;9.13;;
49235;SDS011;35067;48.134;8.378;2023-08-21T00:53:24;10.30;;;9.10;;
49235;SDS011;35067;48.134;8.378;2023-08-21T00:54:25;13.67;;;8.93;;
49235;SDS011;35067;48.134;8.378;2023-08-21T00:55:26;10.90;;;9.80;;
49235;SDS011;35067;48.134;8.378;2023-08-21T00:56:27;10.77;;;9.50;;
49235;SDS011;35067;48.134;8.378;2023-08-21T00:57:28;10.77;;;9.27;;
49235;SDS011;35067;48.134;8.378;2023-08-21T00:58:29;9.67;;;8.77;;
49235;SDS011;35067;48.134;8.378;2023-08-21T00:59:30;10.37;;;9.07;;
49235;SDS011;35067;48.134;8.378;2023-08-21T01:00:31;9.73;;;8.70;;
49235;SDS011;35067;48.134;8.378;2023-08-21T01:01:35;11.33;;;9.57;;
49235;SDS011;35067;48.134;8.378;2023-08-21T01:02:37;10.00;;;9.00;;
49235;SDS011;35067;48.134;8.378;2023-08-21T01:03:37;12.33;;;9.27;;
49235;SDS011;35067;48.134;8.378;2023-08-21T01:04:38;12.87;;;10.20;;
49235;SDS011;35067;48.134;8.378;2023-08-21T01:05:39;10.40;;;9.30;;
49235;SDS011;35067;48.134;8.378;2023-08-21T01:06:40;10.23;;;9.23;;
49235;SDS011;35067;48.134;8.378;2023-08-21T01:07:51;11.67;;;9.33;;
49235;SDS011;35067;48.134;8.378;2023-08-21T01:09:08;11.50;;;10.30;;
49235;SDS011;35067;48.134;8.378;2023-08-21T01:15:06;11.17;;;9.77;;
49235;SDS011;35067;48.134;8.378;2023-08-21T01:16:07;9.90;;;8.90;;
49235;SDS011;35067;48.134;8.378;2023-08-21T01:17:09;9.37;;;8.33;;
49235;SDS011;35067;48.134;8.378;2023-08-21T01:18:13;12.97;;;9.07;;
49235;SDS011;35067;48.134;8.378;2023-08-21T01:19:19;12.47;;;9.83;;
49235;SDS011;35067;48.134;8.378;2023-08-21T01:20:31;10.80;;;9.17;;
49235;SDS011;35067;48.134;8.378;2023-08-21T01:21:32;11.63;;;9.60;;
49235;SDS011;35067;48.134;8.378;2023-08-21T01:22:37;12.23;;;10.07;;
49235;SDS011;35067;48.134;8.378;2023-08-21T01:23:45;11.33;;;10.13;;
49235;SDS011;35067;48.134;8.378;2023-08-21T01:24:46;11.63;;;10.13;;
49235;SDS011;35067;48.134;8.378;2023-08-21T01:25:47;10.00;;;9.00;;
49235;SDS011;35067;48.134;8.378;2023-08-21T01:26:47;11.23;;;10.03;;
49235;SDS011;35067;48.134;8.378;2023-08-21T01:27:48;11.20;;;9.73;;
49235;SDS011;35067;48.134;8.378;2023-08-21T01:28:50;10.70;;;9.60;;
49235;SDS011;35067;48.134;8.378;2023-08-21T01:29:51;10.73;;;9.63;;
49235;SDS011;35067;48.134;8.378;2023-08-21T01:30:54;10.83;;;9.80;;
49235;SDS011;35067;48.134;8.378;2023-08-21T01:33:51;12.63;;;9.63;;
49235;SDS011;35067;48.134;8.378;2023-08-21T01:34:56;10.63;;;9.40;;
49235;SDS011;35067;48.134;8.378;2023-08-21T01:35:58;11.13;;;9.33;;
49235;SDS011;35067;48.134;8.378;2023-08-21T01:37:04;10.20;;;8.90;;
49235;SDS011;35067;48.134;8.378;2023-08-21T01:38:06;11.40;;;10.10;;
49235;SDS011;35067;48.134;8.378;2023-08-21T01:39:07;11.07;;;9.60;;
49235;SDS011;35067;48.134;8.378;2023-08-21T01:40:09;11.40;;;9.13;;
49235;SDS011;35067;48.134;8.378;2023-08-21T01:41:10;13.00;;;9.67;;
49235;SDS011;35067;48.134;8.378;2023-08-21T01:42:10;10.10;;;9.13;;
49235;SDS011;35067;48.134;8.378;2023-08-21T01:43:11;12.27;;;9.83;;
49235;SDS011;35067;48.134;8.378;2023-08-21T01:44:12;11.03;;;9.90;;
49235;SDS011;35067;48.134;8.378;2023-08-21T01:45:13;12.73;;;9.90;;
49235;SDS011;35067;48.134;8.378;2023-08-21T01:46:13;11.57;;;9.90;;
49235;SDS011;35067;48.134;8.378;2023-08-21T01:47:14;12.07;;;10.73;;
49235;SDS011;35067;48.134;8.378;2023-08-21T01:48:15;12.80;;;10.97;;
49235;SDS011;35067;48.134;8.378;2023-08-21T01:49:16;13.60;;;10.00;;
49235;SDS011;35067;48.134;8.378;2023-08-21T01:50:19;11.57;;;10.37;;
49235;SDS011;35067;48.134;8.378;2023-08-21T01:51:19;13.13;;;10.50;;
49235;SDS011;35067;48.134;8.378;2023-08-21T01:52:20;15.33;;;10.33;;
49235;SDS011;35067;48.134;8.378;2023-08-21T01:53:21;10.50;;;9.17;;
49235;SDS011;35067;48.134;8.378;2023-08-21T01:54:22;10.90;;;9.20;;
49235;SDS011;35067;48.134;8.378;2023-08-21T01:55:23;12.27;;;9.43;;
49235;SDS011;35067;48.134;8.378;2023-08-21T01:56:23;10.60;;;9.53;;
49235;SDS011;35067;48.134;8.378;2023-08-21T01:57:24;14.17;;;10.03;;
49235;SDS011;35067;48.134;8.378;2023-08-21T01:58:25;13.93;;;9.40;;
49235;SDS011;35067;48.134;8.378;2023-08-21T01:59:25;12.40;;;10.03;;
49235;SDS011;35067;48.134;8.378;2023-08-21T02:00:26;12.70;;;8.80;;
49235;SDS011;35067;48.134;8.378;2023-08-21T02:01:27;11.23;;;9.10;;
49235;SDS011;35067;48.134;8.378;2023-08-21T02:02:28;9.93;;;8.93;;
49235;SDS011;35067;48.134;8.378;2023-08-21T02:03:28;9.97;;;8.70;;
49235;SDS011;35067;48.134;8.378;2023-08-21T02:04:30;10.77;;;8.73;;
49235;SDS011;35067;48.134;8.378;2023-08-21T02:05:36;9.67;;;8.67;;
49235;SDS011;35067;48.134;8.378;2023-08-21T02:06:39;10.63;;;8.57;;
49235;SDS011;35067;48.134;8.378;2023-08-21T02:07:40;9.93;;;8.93;;
49235;SDS011;35067;48.134;8.378;2023-08-21T02:08:41;9.97;;;8.53;;
49235;SDS011;35067;48.134;8.378;2023-08-21T02:09:42;13.13;;;9.27;;
49235;SDS011;35067;48.134;8.378;2023-08-21T02:10:52;10.80;;;8.93;;
49235;SDS011;35067;48.134;8.378;2023-08-21T02:11:53;12.47;;;8.53;;
49235;SDS011;35067;48.134;8.378;2023-08-21T02:12:53;9.73;;;8.73;;
49235;SDS011;35067;48.134;8.378;2023-08-21T02:13:54;10.30;;;9.13;;
49235;SDS011;35067;48.134;8.378;2023-08-21T02:14:55;9.47;;;8.13;;
49235;SDS011;35067;48.134;8.378;2023-08-21T02:15:55;11.73;;;9.30;;
49235;SDS011;35067;48.134;8.378;2023-08-21T02:16:56;10.17;;;8.50;;
49235;SDS011;35067;48.134;8.378;2023-08-21T02:17:57;10.27;;;9.20;;
49235;SDS011;35067;48.134;8.378;2023-08-21T02:18:58;8.57;;;7.67;;
49235;SDS011;35067;48.134;8.378;2023-08-21T02:19:58;13.90;;;8.60;;
49235;SDS011;35067;48.134;8.378;2023-08-21T02:21:02;9.77;;;8.80;;
49235;SDS011;35067;48.134;8.378;2023-08-21T02:22:03;9.63;;;8.20;;
49235;SDS011;35067;48.134;8.378;2023-08-21T02:23:04;9.50;;;8.50;;
49235;SDS011;35067;48.134;8.378;2023-08-21T02:24:04;10.43;;;8.97;;
49235;SDS011;35067;48.134;8.378;2023-08-21T02:25:05;9.37;;;8.40;;
49235;SDS011;35067;48.134;8.378;2023-08-21T02:26:06;11.60;;;8.43;;
49235;SDS011;35067;48.134;8.378;2023-08-21T02:27:07;9.30;;;8.40;;
49235;SDS011;35067;48.134;8.378;2023-08-21T02:28:08;9.40;;;8.23;;
49235;SDS011;35067;48.134;8.378;2023-08-21T02:29:09;9.90;;;8.13;;
49235;SDS011;35067;48.134;8.378;2023-08-21T02:30:09;9.83;;;8.43;;
49235;SDS011;35067;48.134;8.378;2023-08-21T02:31:11;9.83;;;8.07;;
49235;SDS011;35067;48.134;8.378;2023-08-21T02:32:11;9.77;;;8.77;;
49235;SDS011;35067;48.134;8.378;2023-08-21T02:33:12;9.63;;;8.63;;
49235;SDS011;35067;48.134;8.378;2023-08-21T02:34:13;11.93;;;8.83;;
49235;SDS011;35067;48.134;8.378;2023-08-21T02:35:14;9.40;;;7.73;;
49235;SDS011;35067;48.134;8.378;2023-08-21T02:36:15;9.17;;;8.23;;
49235;SDS011;35067;48.134;8.378;2023-08-21T02:37:16;10.37;;;9.13;;
49235;SDS011;35067;48.134;8.378;2023-08-21T02:38:17;13.03;;;8.90;;
49235;SDS011;35067;48.134;8.378;2023-08-21T02:39:17;11.13;;;8.63;;
49235;SDS011;35067;48.134;8.378;2023-08-21T02:40:18;9.63;;;8.30;;
49235;SDS011;35067;48.134;8.378;2023-08-21T02:41:19;10.30;;;7.87;;
49235;SDS011;35067;48.134;8.378;2023-08-21T02:42:19;9.40;;;8.50;;
49235;SDS011;35067;48.134;8.378;2023-08-21T02:43:20;10.87;;;7.67;;
49235;SDS011;35067;48.134;8.378;2023-08-21T02:44:21;8.90;;;7.93;;
49235;SDS011;35067;48.134;8.378;2023-08-21T02:45:22;10.37;;;9.33;;
49235;SDS011;35067;48.134;8.378;2023-08-21T02:46:22;9.40;;;8.43;;
49235;SDS011;35067;48.134;8.378;2023-08-21T02:47:23;9.57;;;8.57;;
49235;SDS011;35067;48.134;8.378;2023-08-21T02:48:24;11.47;;;9.07;;
49235;SDS011;35067;48.134;8.378;2023-08-21T02:49:25;10.10;;;9.10;;
49235;SDS011;35067;48.134;8.378;2023-08-21T02:50:26;10.73;;;8.50;;
49235;SDS011;35067;48.134;8.378;2023-08-21T02:51:26;13.30;;;8.90;;
49235;SDS011;35067;48.134;8.378;2023-08-21T02:52:27;10.47;;;9.37;;
49235;SDS011;35067;48.134;8.378;2023-08-21T02:53:28;10.23;;;9.13;;
49235;SDS011;35067;48.134;8.378;2023-08-21T02:54:29;11.23;;;9.37;;
49235;SDS011;35067;48.134;8.378;2023-08-21T02:55:30;13.47;;;9.57;;
49235;SDS011;35067;48.134;8.378;2023-08-21T02:56:31;13.27;;;8.97;;
49235;SDS011;35067;48.134;8.378;2023-08-21T02:57:32;14.57;;;9.70;;
49235;SDS011;35067;48.134;8.378;2023-08-21T02:58:33;11.83;;;9.50;;
49235;SDS011;35067;48.134;8.378;2023-08-21T02:59:33;11.43;;;9.70;;
49235;SDS011;35067;48.134;8.378;2023-08-21T03:00:34;11.27;;;9.10;;
49235;SDS011;35067;48.134;8.378;2023-08-21T03:01:35;11.23;;;10.13;;
49235;SDS011;35067;48.134;8.378;2023-08-21T03:02:36;12.50;;;9.03;;
49235;SDS011;35067;48.134;8.378;2023-08-21T03:03:37;10.60;;;9.50;;
49235;SDS011;35067;48.134;8.378;2023-08-21T03:04:37;10.00;;;8.13;;
49235;SDS011;35067;48.134;8.378;2023-08-21T03:05:38;9.67;;;8.67;;
49235;SDS011;35067;48.134;8.378;2023-08-21T03:06:39;10.10;;;8.43;;
49235;SDS011;35067;48.134;8.378;2023-08-21T03:07:39;12.03;;;8.33;;
49235;SDS011;35067;48.134;8.378;2023-08-21T03:08:40;11.03;;;9.43;;
49235;SDS011;35067;48.134;8.378;2023-08-21T03:09:44;10.60;;;8.50;;
49235;SDS011;35067;48.134;8.378;2023-08-21T03:10:47;9.77;;;8.83;;
49235;SDS011;35067;48.134;8.378;2023-08-21T03:11:47;11.43;;;9.63;;
49235;SDS011;35067;48.134;8.378;2023-08-21T03:12:48;10.70;;;9.23;;
49235;SDS011;35067;48.134;8.378;2023-08-21T03:13:49;11.40;;;9.37;;
49235;SDS011;35067;48.134;8.378;2023-08-21T03:14:51;11.03;;;9.97;;
49235;SDS011;35067;48.134;8.378;2023-08-21T03:15:51;13.47;;;9.97;;
49235;SDS011;35067;48.134;8.378;2023-08-21T03:16:52;10.87;;;9.73;;
49235;SDS011;35067;48.134;8.378;2023-08-21T03:17:53;10.93;;;9.00;;
49235;SDS011;35067;48.134;8.378;2023-08-21T03:18:55;11.00;;;9.50;;
49235;SDS011;35067;48.134;8.378;2023-08-21T03:20:00;10.87;;;9.10;;
49235;SDS011;35067;48.134;8.378;2023-08-21T03:21:01;10.80;;;9.70;;
49235;SDS011;35067;48.134;8.378;2023-08-21T03:22:02;10.37;;;9.37;;
49235;SDS011;35067;48.134;8.378;2023-08-21T03:23:02;13.83;;;8.87;;
49235;SDS011;35067;48.134;8.378;2023-08-21T03:24:03;9.93;;;8.93;;
49235;SDS011;35067;48.134;8.378;2023-08-21T03:25:06;9.13;;;8.23;;
49235;SDS011;35067;48.134;8.378;2023-08-21T03:26:07;11.20;;;8.80;;
49235;SDS011;35067;48.134;8.378;2023-08-21T03:27:08;12.00;;;8.73;;
49235;SDS011;35067;48.134;8.378;2023-08-21T03:28:09;9.00;;;8.20;;
49235;SDS011;35067;48.134;8.378;2023-08-21T03:29:09;9.70;;;8.73;;
49235;SDS011;35067;48.134;8.378;2023-08-21T03:30:10;9.93;;;8.33;;
49235;SDS011;35067;48.134;8.378;2023-08-21T03:31:14;9.23;;;7.97;;
49235;SDS011;35067;48.134;8.378;2023-08-21T03:32:16;8.80;;;7.73;;
49235;SDS011;35067;48.134;8.378;2023-08-21T03:33:17;12.80;;;9.47;;
49235;SDS011;35067;48.134;8.378;2023-08-21T03:34:18;11.43;;;9.90;;
49235;SDS011;35067;48.134;8.378;2023-08-21T03:35:19;12.03;;;9.23;;
49235;SDS011;35067;48.134;8.378;2023-08-21T03:36:20;10.07;;;8.83;;
49235;SDS011;35067;48.134;8.378;2023-08-21T03:37:30;10.47;;;9.10;;
49235;SDS011;35067;48.134;8.378;2023-08-21T03:38:31;9.53;;;8.63;;
49235;SDS011;35067;48.134;8.378;2023-08-21T03:39:32;12.27;;;10.13;;
49235;SDS011;35067;48.134;8.378;2023-08-21T03:40:33;12.17;;;9.53;;
49235;SDS011;35067;48.134;8.378;2023-08-21T03:41:33;11.97;;;9.73;;
49235;SDS011;35067;48.134;8.378;2023-08-21T03:42:34;11.07;;;9.10;;
49235;SDS011;35067;48.134;8.378;2023-08-21T03:43:35;10.70;;;9.60;;
49235;SDS011;35067;48.134;8.378;2023-08-21T03:44:37;11.37;;;9.83;;
49235;SDS011;35067;48.134;8.378;2023-08-21T03:45:38;11.37;;;10.07;;
49235;SDS011;35067;48.134;8.378;2023-08-21T03:46:38;14.97;;;11.20;;
49235;SDS011;35067;48.134;8.378;2023-08-21T03:47:39;12.27;;;9.20;;
49235;SDS011;35067;48.134;8.378;2023-08-21T03:48:40;12.67;;;9.93;;
49235;SDS011;35067;48.134;8.378;2023-08-21T03:49:41;12.73;;;10.00;;
49235;SDS011;35067;48.134;8.378;2023-08-21T03:50:42;10.73;;;9.60;;
49235;SDS011;35067;48.134;8.378;2023-08-21T03:51:42;13.27;;;9.90;;
49235;SDS011;35067;48.134;8.378;2023-08-21T03:52:43;12.13;;;9.43;;
49235;SDS011;35067;48.134;8.378;2023-08-21T03:53:44;11.60;;;9.50;;
49235;SDS011;35067;48.134;8.378;2023-08-21T03:54:44;10.77;;;9.33;;
49235;SDS011;35067;48.134;8.378;2023-08-21T03:55:45;13.47;;;10.40;;
49235;SDS011;35067;48.134;8.378;2023-08-21T03:56:46;10.43;;;9.43;;
49235;SDS011;35067;48.134;8.378;2023-08-21T03:57:47;11.73;;;9.17;;
49235;SDS011;35067;48.134;8.378;2023-08-21T03:58:47;10.10;;;8.97;;
49235;SDS011;35067;48.134;8.378;2023-08-21T03:59:49;12.37;;;10.10;;
49235;SDS011;35067;48.134;8.378;2023-08-21T04:00:50;13.93;;;10.10;;
49235;SDS011;35067;48.134;8.378;2023-08-21T04:01:51;10.07;;;8.80;;
49235;SDS011;35067;48.134;8.378;2023-08-21T04:02:52;10.30;;;9.23;;
49235;SDS011;35067;48.134;8.378;2023-08-21T04:03:53;11.03;;;9.47;;
49235;SDS011;35067;48.134;8.378;2023-08-21T04:04:53;10.37;;;8.70;;
49235;SDS011;35067;48.134;8.378;2023-08-21T04:05:54;11.40;;;8.80;;
49235;SDS011;35067;48.134;8.378;2023-08-21T04:06:56;12.13;;;8.97;;
49235;SDS011;35067;48.134;8.378;2023-08-21T04:07:57;10.63;;;9.37;;
49235;SDS011;35067;48.134;8.378;2023-08-21T04:08:57;11.37;;;10.10;;
49235;SDS011;35067;48.134;8.378;2023-08-21T04:09:58;10.77;;;9.67;;
49235;SDS011;35067;48.134;8.378;2023-08-21T04:10:59;8.63;;;7.77;;
49235;SDS011;35067;48.134;8.378;2023-08-21T04:12:00;11.10;;;9.00;;
49235;SDS011;35067;48.134;8.378;2023-08-21T04:13:01;10.13;;;8.20;;
49235;SDS011;35067;48.134;8.378;2023-08-21T04:14:01;14.23;;;9.10;;
49235;SDS011;35067;48.134;8.378;2023-08-21T04:15:02;10.90;;;9.20;;
49235;SDS011;35067;48.134;8.378;2023-08-21T04:16:03;8.80;;;7.83;;
49235;SDS011;35067;48.134;8.378;2023-08-21T04:17:04;9.07;;;8.17;;
49235;SDS011;35067;48.134;8.378;2023-08-21T04:18:05;9.77;;;8.77;;
49235;SDS011;35067;48.134;8.378;2023-08-21T04:19:06;9.33;;;8.27;;
49235;SDS011;35067;48.134;8.378;2023-08-21T04:20:07;10.70;;;8.37;;
49235;SDS011;35067;48.134;8.378;2023-08-21T04:21:08;9.80;;;8.80;;
49235;SDS011;35067;48.134;8.378;2023-08-21T04:22:09;9.87;;;8.87;;
49235;SDS011;35067;48.134;8.378;2023-08-21T04:23:10;10.10;;;8.87;;
49235;SDS011;35067;48.134;8.378;2023-08-21T04:24:11;11.00;;;8.80;;
49235;SDS011;35067;48.134;8.378;2023-08-21T04:25:11;10.83;;;8.87;;
49235;SDS011;35067;48.134;8.378;2023-08-21T04:26:12;10.73;;;9.13;;
49235;SDS011;35067;48.134;8.378;2023-08-21T04:27:13;10.83;;;9.70;;
49235;SDS011;35067;48.134;8.378;2023-08-21T04:28:14;13.43;;;9.90;;
49235;SDS011;35067;48.134;8.378;2023-08-21T04:29:14;12.10;;;9.70;;
49235;SDS011;35067;48.134;8.378;2023-08-21T04:30:15;9.80;;;8.80;;
49235;SDS011;35067;48.134;8.378;2023-08-21T04:31:16;9.97;;;8.57;;
49235;SDS011;35067;48.134;8.378;2023-08-21T04:32:17;10.67;;;8.73;;
49235;SDS011;35067;48.134;8.378;2023-08-21T04:33:17;11.80;;;9.67;;
49235;SDS011;35067;48.134;8.378;2023-08-21T04:34:18;16.70;;;8.53;;
49235;SDS011;35067;48.134;8.378;2023-08-21T04:35:19;13.20;;;9.53;;
49235;SDS011;35067;48.134;8.378;2023-08-21T04:36:20;11.07;;;9.03;;
49235;SDS011;35067;48.134;8.378;2023-08-21T04:37:20;11.00;;;8.90;;
49235;SDS011;35067;48.134;8.378;2023-08-21T04:38:21;9.17;;;8.13;;
49235;SDS011;35067;48.134;8.378;2023-08-21T04:39:22;8.67;;;7.77;;
49235;SDS011;35067;48.134;8.378;2023-08-21T04:40:24;10.60;;;7.87;;
49235;SDS011;35067;48.134;8.378;2023-08-21T04:41:24;10.57;;;8.00;;
49235;SDS011;35067;48.134;8.378;2023-08-21T04:42:25;9.77;;;8.77;;
49235;SDS011;35067;48.134;8.378;2023-08-21T04:43:26;11.10;;;8.17;;
49235;SDS011;35067;48.134;8.378;2023-08-21T04:44:27;11.67;;;9.23;;
49235;SDS011;35067;48.134;8.378;2023-08-21T04:45:27;10.13;;;8.57;;
49235;SDS011;35067;48.134;8.378;2023-08-21T04:46:28;9.90;;;8.83;;
49235;SDS011;35067;48.134;8.378;2023-08-21T04:47:29;10.93;;;8.80;;
49235;SDS011;35067;48.134;8.378;2023-08-21T04:48:29;9.13;;;8.23;;
49235;SDS011;35067;48.134;8.378;2023-08-21T04:49:30;12.23;;;8.23;;
49235;SDS011;35067;48.134;8.378;2023-08-21T04:50:31;10.27;;;8.57;;
49235;SDS011;35067;48.134;8.378;2023-08-21T04:51:32;10.70;;;9.10;;
49235;SDS011;35067;48.134;8.378;2023-08-21T04:52:32;12.77;;;10.27;;
49235;SDS011;35067;48.134;8.378;2023-08-21T04:53:33;12.07;;;10.10;;
49235;SDS011;35067;48.134;8.378;2023-08-21T04:54:34;10.37;;;9.27;;
49235;SDS011;35067;48.134;8.378;2023-08-21T04:55:34;13.77;;;8.63;;
49235;SDS011;35067;48.134;8.378;2023-08-21T04:56:36;9.20;;;8.30;;
49235;SDS011;35067;48.134;8.378;2023-08-21T04:57:37;9.70;;;7.93;;
49235;SDS011;35067;48.134;8.378;2023-08-21T04:58:38;10.73;;;8.27;;
49235;SDS011;35067;48.134;8.378;2023-08-21T04:59:38;8.80;;;7.90;;
49235;SDS011;35067;48.134;8.378;2023-08-21T05:00:39;10.67;;;8.30;;
49235;SDS011;35067;48.134;8.378;2023-08-21T05:01:40;9.50;;;8.60;;
49235;SDS011;35067;48.134;8.378;2023-08-21T05:02:41;10.47;;;9.37;;
49235;SDS011;35067;48.134;8.378;2023-08-21T05:03:41;10.37;;;8.33;;
49235;SDS011;35067;48.134;8.378;2023-08-21T05:04:42;10.87;;;8.47;;
49235;SDS011;35067;48.134;8.378;2023-08-21T05:05:51;9.23;;;7.90;;
49235;SDS011;35067;48.134;8.378;2023-08-21T05:06:55;9.97;;;8.23;;
49235;SDS011;35067;48.134;8.378;2023-08-21T05:07:56;11.17;;;8.70;;
49235;SDS011;35067;48.134;8.378;2023-08-21T05:08:57;10.33;;;9.27;;
49235;SDS011;35067;48.134;8.378;2023-08-21T05:10:01;11.60;;;8.70;;
49235;SDS011;35067;48.134;8.378;2023-08-21T05:11:02;10.33;;;9.17;;
49235;SDS011;35067;48.134;8.378;2023-08-21T05:12:03;10.93;;;9.13;;
49235;SDS011;35067;48.134;8.378;2023-08-21T05:13:05;10.50;;;9.07;;
49235;SDS011;35067;48.134;8.378;2023-08-21T05:14:06;11.40;;;9.37;;
49235;SDS011;35067;48.134;8.378;2023-08-21T05:15:07;9.80;;;8.43;;
49235;SDS011;35067;48.134;8.378;2023-08-21T05:16:08;13.10;;;9.00;;
49235;SDS011;35067;48.134;8.378;2023-08-21T05:17:09;10.57;;;8.93;;
49235;SDS011;35067;48.134;8.378;2023-08-21T05:18:10;9.47;;;8.57;;
49235;SDS011;35067;48.134;8.378;2023-08-21T05:19:10;9.10;;;8.20;;
49235;SDS011;35067;48.134;8.378;2023-08-21T05:20:11;10.50;;;7.60;;
49235;SDS011;35067;48.134;8.378;2023-08-21T05:21:14;9.37;;;7.77;;
49235;SDS011;35067;48.134;8.378;2023-08-21T05:22:15;8.83;;;7.93;;
49235;SDS011;35067;48.134;8.378;2023-08-21T05:23:16;9.63;;;8.33;;
49235;SDS011;35067;48.134;8.378;2023-08-21T05:24:17;7.07;;;6.37;;
49235;SDS011;35067;48.134;8.378;2023-08-21T05:25:17;7.87;;;6.93;;
49235;SDS011;35067;48.134;8.378;2023-08-21T05:26:19;8.97;;;6.83;;
49235;SDS011;35067;48.134;8.378;2023-08-21T05:27:21;10.40;;;7.60;;
49235;SDS011;35067;48.134;8.378;2023-08-21T05:28:21;7.97;;;7.00;;
49235;SDS011;35067;48.134;8.378;2023-08-21T05:29:22;10.07;;;6.80;;
49235;SDS011;35067;48.134;8.378;2023-08-21T05:30:23;8.67;;;6.33;;
49235;SDS011;35067;48.134;8.378;2023-08-21T05:31:24;8.23;;;6.90;;
49235;SDS011;35067;48.134;8.378;2023-08-21T05:32:24;8.77;;;6.60;;
49235;SDS011;35067;48.134;8.378;2023-08-21T05:33:25;8.60;;;6.97;;
49235;SDS011;35067;48.134;8.378;2023-08-21T05:34:26;7.37;;;6.23;;
49235;SDS011;35067;48.134;8.378;2023-08-21T05:35:28;8.03;;;7.23;;
49235;SDS011;35067;48.134;8.378;2023-08-21T05:36:29;7.43;;;6.47;;
49235;SDS011;35067;48.134;8.378;2023-08-21T05:37:30;7.63;;;6.83;;
49235;SDS011;35067;48.134;8.378;2023-08-21T05:38:31;10.33;;;7.40;;
49235;SDS011;35067;48.134;8.378;2023-08-21T05:39:32;8.07;;;7.27;;
49235;SDS011;35067;48.134;8.378;2023-08-21T05:40:33;8.23;;;7.33;;
49235;SDS011;35067;48.134;8.378;2023-08-21T05:41:34;8.53;;;7.73;;
49235;SDS011;35067;48.134;8.378;2023-08-21T05:42:35;11.10;;;8.70;;
49235;SDS011;35067;48.134;8.378;2023-08-21T05:43:36;9.47;;;8.47;;
49235;SDS011;35067;48.134;8.378;2023-08-21T05:44:36;9.13;;;8.13;;
49235;SDS011;35067;48.134;8.378;2023-08-21T05:45:37;9.20;;;8.30;;
49235;SDS011;35067;48.134;8.378;2023-08-21T05:46:38;8.17;;;7.37;;
49235;SDS011;35067;48.134;8.378;2023-08-21T05:47:38;9.67;;;8.67;;
49235;SDS011;35067;48.134;8.378;2023-08-21T05:48:39;9.97;;;8.97;;
49235;SDS011;35067;48.134;8.378;2023-08-21T05:49:40;9.63;;;8.63;;
49235;SDS011;35067;48.134;8.378;2023-08-21T05:50:41;9.67;;;8.33;;
49235;SDS011;35067;48.134;8.378;2023-08-21T05:51:41;9.70;;;8.70;;
49235;SDS011;35067;48.134;8.378;2023-08-21T05:52:42;8.70;;;7.80;;
49235;SDS011;35067;48.134;8.378;2023-08-21T05:53:43;9.80;;;8.47;;
49235;SDS011;35067;48.134;8.378;2023-08-21T05:54:44;10.37;;;8.40;;
49235;SDS011;35067;48.134;8.378;2023-08-21T05:55:44;9.60;;;8.10;;
49235;SDS011;35067;48.134;8.378;2023-08-21T05:56:45;9.30;;;8.00;;
49235;SDS011;35067;48.134;8.378;2023-08-21T05:57:46;8.73;;;7.80;;
49235;SDS011;35067;48.134;8.378;2023-08-21T05:58:46;9.20;;;7.33;;
49235;SDS011;35067;48.134;8.378;2023-08-21T05:59:47;9.93;;;7.93;;
49235;SDS011;35067;48.134;8.378;2023-08-21T06:00:48;9.83;;;8.27;;
49235;SDS011;35067;48.134;8.378;2023-08-21T06:01:49;8.63;;;7.73;;
49235;SDS011;35067;48.134;8.378;2023-08-21T06:02:49;10.23;;;8.50;;
49235;SDS011;35067;48.134;8.378;2023-08-21T06:03:50;10.57;;;8.67;;
49235;SDS011;35067;48.134;8.378;2023-08-21T06:04:51;9.27;;;8.13;;
49235;SDS011;35067;48.134;8.378;2023-08-21T06:05:52;9.07;;;8.17;;
49235;SDS011;35067;48.134;8.378;2023-08-21T06:06:53;8.43;;;7.63;;
49235;SDS011;35067;48.134;8.378;2023-08-21T06:07:53;9.67;;;7.80;;
49235;SDS011;35067;48.134;8.378;2023-08-21T06:08:54;8.40;;;7.60;;
49235;SDS011;35067;48.134;8.378;2023-08-21T06:09:55;8.63;;;7.83;;
49235;SDS011;35067;48.134;8.378;2023-08-21T06:10:56;8.87;;;7.97;;
49235;SDS011;35067;48.134;8.378;2023-08-21T06:11:57;9.70;;;7.90;;